Time;durP1;ratioP1;P1;durP2;ratioP2;P2;SDS_P1;SDS_P2;PMS_P1;PMS_P2;Temp;Humidity;BMP_temperature;BMP_pressure;BME280_temperature;BME280_humidity;BME280_pressure;Samples;Min_cycle;Max_cycle;Signal;HPM_P1;HPM_P2
2021/12/08 00:00:31;;;;;;;;;2.00;0.00;;;;;8.65;61.14;99118.69;5032418;28;45240;-64
2021/12/08 00:02:59;;;;;;;;;0.00;0.00;;;;;8.70;60.87;99126.72;5032872;28;45609;-63
2021/12/08 00:05:26;;;;;;;;;3.50;1.75;;;;;8.65;60.88;99124.88;5033364;28;44981;-63
2021/12/08 00:07:51;;;;;;;;;1.00;1.00;;;;;8.44;61.21;99079.47;5033075;28;44942;-63
2021/12/08 00:15:28;;;;;;;;;1.00;1.00;;;;;8.69;60.96;99127.56;5032705;28;45334;-63
2021/12/08 00:17:53;;;;;;;;;1.75;1.00;;;;;8.65;62.02;99124.00;5032796;28;45100;-63
2021/12/08 00:20:19;;;;;;;;;0.00;0.00;;;;;8.18;61.76;99028.66;5032894;28;45049;-64
2021/12/08 00:22:44;;;;;;;;;0.00;0.00;;;;;8.67;62.13;99120.44;5032497;28;45175;-63
2021/12/08 00:25:10;;;;;;;;;0.50;0.50;;;;;8.65;61.54;99122.22;5032263;28;44976;-64
2021/12/08 00:27:36;;;;;;;;;3.00;0.00;;;;;8.62;61.43;99111.53;5032024;28;45138;-63
2021/12/08 00:30:03;;;;;;;;;1.50;0.25;;;;;8.62;62.63;99113.31;5032248;28;44855;-63
2021/12/08 00:32:31;;;;;;;;;2.00;0.00;;;;;8.62;61.60;99116.88;5012433;28;45156;-64
2021/12/08 00:34:56;;;;;;;;;3.25;1.50;;;;;8.63;62.60;99112.47;5012574;28;45331;-64
2021/12/08 00:37:23;;;;;;;;;2.00;1.00;;;;;8.64;61.76;99109.78;5013298;28;45044;-63
2021/12/08 00:39:48;;;;;;;;;1.75;1.00;;;;;8.60;62.06;99125.75;5021732;28;44954;-63
2021/12/08 00:42:14;;;;;;;;;2.50;0.00;;;;;8.57;61.98;99112.41;5032628;28;45484;-63
2021/12/08 00:44:39;;;;;;;;;2.00;1.00;;;;;8.39;61.99;99105.13;5032350;28;45021;-63
2021/12/08 00:47:05;;;;;;;;;1.25;0.75;;;;;8.52;62.16;99143.41;5031756;28;45004;-63
2021/12/08 00:49:31;;;;;;;;;1.50;0.25;;;;;8.52;61.86;99144.31;5032421;28;45069;-64
2021/12/08 00:51:57;;;;;;;;;0.00;0.00;;;;;8.37;62.00;99136.16;5031104;28;46275;-63
2021/12/08 00:54:22;;;;;;;;;0.75;0.75;;;;;8.52;62.61;99164.72;5032236;28;44842;-63
2021/12/08 00:56:48;;;;;;;;;0.25;0.25;;;;;8.42;61.58;99145.94;5032925;28;45086;-62
2021/12/08 00:59:13;;;;;;;;;1.00;1.00;;;;;8.34;61.96;99149.44;5032814;28;44894;-63
2021/12/08 01:01:39;;;;;;;;;0.00;0.00;;;;;8.21;61.86;99140.44;5031077;28;45302;-63
2021/12/08 01:04:06;;;;;;;;;4.00;1.50;;;;;7.91;62.07;99080.72;5032119;28;44930;-62
2021/12/08 01:06:31;;;;;;;;;2.00;0.00;;;;;8.34;61.32;99157.41;5031581;28;45037;-62
2021/12/08 01:08:57;;;;;;;;;1.00;1.00;;;;;8.29;62.04;99168.88;5032668;28;45487;-62
2021/12/08 01:11:22;;;;;;;;;0.00;0.00;;;;;8.30;61.87;99173.34;5032634;28;45146;-62
2021/12/08 01:13:48;;;;;;;;;1.50;0.00;;;;;8.32;60.83;99161.84;5032265;28;45049;-62
2021/12/08 01:16:16;;;;;;;;;1.50;0.00;;;;;8.14;60.87;99133.28;5031632;28;44986;-63
2021/12/08 01:18:42;;;;;;;;;0.00;0.00;;;;;8.22;61.60;99158.19;5032241;28;45135;-62
2021/12/08 01:21:10;;;;;;;;;1.75;0.00;;;;;8.20;61.12;99159.91;5030945;28;45884;-63
2021/12/08 01:23:37;;;;;;;;;0.00;0.00;;;;;8.17;61.06;99173.22;5029461;28;45059;-63
2021/12/08 01:26:04;;;;;;;;;1.25;0.25;;;;;8.13;60.83;99164.28;5030725;28;45330;-62
2021/12/08 01:28:30;;;;;;;;;2.50;1.50;;;;;8.12;60.87;99147.44;5030683;28;45150;-63
2021/12/08 01:30:56;;;;;;;;;2.00;1.00;;;;;8.05;61.14;99119.00;5029843;28;45531;-64
2021/12/08 01:33:24;;;;;;;;;1.00;0.00;;;;;8.04;61.26;99111.00;5029265;28;44914;-62
2021/12/08 01:35:51;;;;;;;;;0.00;0.00;;;;;7.98;60.59;99100.28;5023168;28;44998;-62
2021/12/08 01:38:16;;;;;;;;;2.00;0.00;;;;;8.01;60.93;99114.50;5009148;28;45164;-62
2021/12/08 01:40:42;;;;;;;;;0.00;0.00;;;;;8.09;60.55;99126.13;5011428;28;45345;-63
2021/12/08 01:43:22;;;;;;;;;0.00;0.00;;;;;8.08;60.40;99129.69;5012860;28;45015;-63
2021/12/08 01:45:59;;;;;;;;;0.00;0.00;;;;;8.05;61.57;99144.69;5012688;28;45454;-64
2021/12/08 01:48:29;;;;;;;;;0.00;0.00;;;;;8.03;60.73;99151.75;5026516;28;45458;-64
2021/12/08 01:51:00;;;;;;;;;0.50;0.00;;;;;7.90;61.29;99143.66;5034696;28;45912;-62
2021/12/08 01:53:26;;;;;;;;;3.50;1.00;;;;;8.00;61.39;99176.56;5034286;28;45132;-62
2021/12/08 01:55:51;;;;;;;;;0.00;0.00;;;;;8.00;61.45;99176.56;5034855;28;44999;-62
2021/12/08 01:58:17;;;;;;;;;1.00;1.00;;;;;7.99;60.97;99173.91;5035222;28;45143;-63
2021/12/08 02:00:48;;;;;;;;;2.00;0.00;;;;;8.01;61.32;99180.13;5034344;28;45084;-62
2021/12/08 02:03:15;;;;;;;;;0.00;0.00;;;;;8.01;61.72;99190.75;5033383;28;45119;-63
2021/12/08 02:05:41;;;;;;;;;1.00;0.00;;;;;7.98;61.17;99196.03;5034168;28;45201;-62
2021/12/08 02:08:06;;;;;;;;;0.75;0.00;;;;;7.98;61.20;99196.91;5034828;28;45129;-63
2021/12/08 02:10:32;;;;;;;;;0.50;0.00;;;;;7.99;62.00;99195.19;5034039;28;45964;-63
2021/12/08 02:12:58;;;;;;;;;0.25;0.00;;;;;7.97;62.48;99203.13;5033859;28;45125;-62
2021/12/08 02:15:23;;;;;;;;;1.50;0.00;;;;;7.91;61.72;99201.28;5033022;28;45301;-62
2021/12/08 02:17:52;;;;;;;;;0.00;0.00;;;;;7.90;62.15;99210.16;5033040;28;45346;-62
2021/12/08 02:20:20;;;;;;;;;1.25;0.00;;;;;7.86;62.03;99224.25;5031715;28;45620;-62
2021/12/08 02:22:45;;;;;;;;;1.00;0.00;;;;;7.86;62.13;99228.69;5030647;28;45254;-62
2021/12/08 02:25:17;;;;;;;;;0.00;0.00;;;;;7.83;62.44;99223.34;5032072;28;45136;-63
2021/12/08 02:27:43;;;;;;;;;3.00;0.00;;;;;7.81;62.74;99238.38;5034105;28;44856;-63
2021/12/08 02:30:25;;;;;;;;;0.75;0.75;;;;;7.77;62.78;99228.56;5032127;28;44942;-61
2021/12/08 02:46:53;;;;;;;;;1.25;0.00;;;;;7.54;63.20;99232.72;5034184;28;44992;-64
2021/12/08 02:49:20;;;;;;;;;0.75;0.75;;;;;7.49;63.86;99222.88;5033782;28;45312;-62
2021/12/08 02:51:47;;;;;;;;;1.75;1.75;;;;;7.51;64.06;99231.78;5033459;28;45300;-63
2021/12/08 02:54:12;;;;;;;;;2.50;0.00;;;;;7.52;63.82;99236.19;5034029;28;44996;-63
2021/12/08 02:56:38;;;;;;;;;2.75;0.25;;;;;7.46;63.41;99221.06;5033414;28;44994;-63
2021/12/08 02:59:05;;;;;;;;;0.00;0.00;;;;;7.51;63.71;99248.59;5034035;28;45407;-64
2021/12/08 03:01:31;;;;;;;;;0.00;0.00;;;;;7.43;63.20;99228.13;5033914;28;45210;-63
2021/12/08 03:03:57;;;;;;;;;1.25;1.00;;;;;7.47;63.43;99245.88;5033343;28;45084;-62
2021/12/08 03:06:22;;;;;;;;;7.50;0.75;;;;;7.45;62.78;99218.41;5031891;28;45315;-62
2021/12/08 03:08:48;;;;;;;;;0.00;0.00;;;;;7.24;62.89;99179.13;5033775;28;45029;-63
2021/12/08 03:11:13;;;;;;;;;2.50;0.00;;;;;7.46;62.81;99215.75;5033164;28;45071;-62
2021/12/08 03:14:03;;;;;;;;;2.50;0.00;;;;;7.46;63.05;99212.22;5033381;28;45111;-62
2021/12/08 03:16:29;;;;;;;;;1.25;0.50;;;;;7.25;62.87;99181.81;5034350;28;44943;-64
2021/12/08 03:18:54;;;;;;;;;1.25;0.00;;;;;7.45;62.78;99203.34;5033474;28;45156;-63
2021/12/08 03:21:27;;;;;;;;;0.00;0.00;;;;;7.28;62.65;99188.94;5032958;28;46229;-63
2021/12/08 03:24:06;;;;;;;;;3.50;0.00;;;;;7.40;62.56;99214.78;5033193;28;45044;-63
2021/12/08 03:26:34;;;;;;;;;1.00;1.00;;;;;7.34;62.85;99200.53;5032945;28;45293;-63
2021/12/08 03:29:06;;;;;;;;;3.50;0.00;;;;;7.37;63.13;99202.34;5034080;28;45070;-63
2021/12/08 03:31:39;;;;;;;;;0.00;0.00;;;;;7.20;62.92;99173.75;5033057;28;45100;-63
2021/12/08 03:34:04;;;;;;;;;0.00;0.00;;;;;7.34;62.68;99189.91;5033126;28;45187;-63
2021/12/08 03:36:30;;;;;;;;;0.00;0.00;;;;;7.40;62.80;99189.09;5031750;28;45242;-63
2021/12/08 03:38:55;;;;;;;;;0.25;0.25;;;;;7.45;62.27;99183.84;5031539;28;45123;-63
2021/12/08 03:41:21;;;;;;;;;0.50;0.00;;;;;7.30;62.60;99153.53;5031835;28;45244;-62
2021/12/08 03:43:46;;;;;;;;;2.00;0.00;;;;;7.48;62.43;99189.22;5032353;28;44999;-64
2021/12/08 03:46:15;;;;;;;;;0.00;0.00;;;;;7.50;62.52;99192.78;5033759;28;45118;-64
2021/12/08 03:48:48;;;;;;;;;6.50;2.75;;;;;7.49;61.90;99180.34;5033011;28;44922;-64
2021/12/08 03:51:16;;;;;;;;;2.50;0.00;;;;;7.47;61.99;99177.66;5032363;28;46007;-64
2021/12/08 03:53:42;;;;;;;;;0.75;0.00;;;;;7.54;61.98;99181.34;5033555;28;45068;-64
2021/12/08 03:56:08;;;;;;;;;0.00;0.00;;;;;7.55;62.46;99177.78;5033338;28;44950;-63
2021/12/08 03:58:35;;;;;;;;;2.00;0.50;;;;;7.52;62.50;99188.38;5033147;28;45080;-64
2021/12/08 04:01:04;;;;;;;;;0.25;0.25;;;;;7.47;62.18;99198.94;5031738;28;45130;-63
2021/12/08 04:03:32;;;;;;;;;2.50;0.00;;;;;7.51;62.06;99198.13;5031685;28;45468;-63
2021/12/08 04:06:02;;;;;;;;;1.00;1.00;;;;;7.56;62.23;99193.75;5031080;28;44961;-64
2021/12/08 04:08:56;;;;;;;;;0.00;0.00;;;;;7.51;62.44;99179.50;5030698;28;45145;-63
2021/12/08 04:11:17;;;;;;;;;1.00;0.00;;;;;7.41;62.30;99166.97;5032157;28;45879;-62
2021/12/08 04:13:53;;;;;;;;;1.25;0.00;;;;;7.09;62.39;99121.38;5031642;28;45094;-64
2021/12/08 04:16:25;;;;;;;;;2.00;0.00;;;;;7.54;62.72;99194.63;5033254;28;45123;-64
2021/12/08 04:18:52;;;;;;;;;0.00;0.00;;;;;7.54;62.46;99189.31;5032959;28;45039;-62
2021/12/08 04:21:18;;;;;;;;;2.50;0.00;;;;;7.39;62.38;99163.38;5031985;28;45648;-63
2021/12/08 04:23:45;;;;;;;;;2.00;0.25;;;;;7.53;62.14;99191.03;5027100;28;45304;-63
2021/12/08 04:26:23;;;;;;;;;1.00;1.00;;;;;7.47;62.99;99180.31;5032434;28;45145;-63
2021/12/08 04:28:49;;;;;;;;;1.25;0.50;;;;;7.52;62.94;99189.28;5033040;28;45170;-62
2021/12/08 04:31:23;;;;;;;;;0.00;0.00;;;;;7.54;62.67;99194.63;5016266;28;45227;-64
2021/12/08 04:33:53;;;;;;;;;4.00;1.00;;;;;7.58;62.66;99193.78;5012426;28;45101;-63
2021/12/08 04:36:21;;;;;;;;;3.00;1.00;;;;;7.61;62.52;99209.75;5028594;28;45234;-62
2021/12/08 04:38:51;;;;;;;;;0.50;0.50;;;;;7.59;62.37;99205.28;5030197;28;45004;-64
2021/12/08 04:41:25;;;;;;;;;1.00;0.00;;;;;7.62;63.11;99198.25;5030847;28;46188;-63
2021/12/08 05:10:32;;;;;;;;;0.00;0.00;;;;;7.69;62.46;99220.50;5031735;28;44999;-63
2021/12/08 05:13:00;;;;;;;;;2.50;1.00;;;;;7.68;62.47;99234.66;5031670;28;45217;-62
2021/12/08 05:15:49;;;;;;;;;2.25;0.50;;;;;7.57;62.39;99229.19;5034501;28;45034;-62
2021/12/08 05:18:18;;;;;;;;;3.00;1.00;;;;;7.61;62.42;99225.72;5035327;28;44949;-63
2021/12/08 05:20:43;;;;;;;;;6.50;4.00;;;;;7.57;63.31;99227.44;5035805;28;45027;-62
2021/12/08 05:23:17;;;;;;;;;1.25;1.25;;;;;7.48;63.13;99205.16;5035221;28;45948;-62
2021/12/08 05:25:45;;;;;;;;;1.00;1.00;;;;;7.51;62.44;99237.09;5035363;28;45036;-63
2021/12/08 05:28:13;;;;;;;;;2.75;0.75;;;;;7.51;62.54;99231.78;5035136;28;45139;-62
2021/12/08 05:30:52;;;;;;;;;5.00;2.00;;;;;7.48;62.86;99239.69;5034455;28;44960;-63
2021/12/08 05:33:18;;;;;;;;;0.50;0.50;;;;;7.47;62.96;99246.75;5014402;28;45520;-63
2021/12/08 05:35:45;;;;;;;;;2.50;1.00;;;;;7.42;63.11;99256.44;5015079;28;45313;-62
2021/12/08 05:38:11;;;;;;;;;1.00;0.00;;;;;7.42;62.80;99251.13;5014386;28;45321;-62
2021/12/08 05:40:45;;;;;;;;;2.00;1.00;;;;;7.40;63.71;99252.88;5028012;28;45070;-64
2021/12/08 05:43:12;;;;;;;;;2.00;2.00;;;;;7.38;63.93;99242.22;5035072;28;45399;-62
2021/12/08 05:45:38;;;;;;;;;2.00;0.00;;;;;7.42;63.65;99271.50;5034395;28;45174;-63
2021/12/08 05:48:04;;;;;;;;;0.00;0.00;;;;;7.41;63.44;99265.28;5035601;28;45211;-62
2021/12/08 05:50:35;;;;;;;;;4.00;1.50;;;;;7.41;63.71;99259.97;5034815;28;45174;-62
2021/12/08 05:53:00;;;;;;;;;0.00;0.00;;;;;7.41;63.60;99267.03;5034601;28;45247;-62
2021/12/08 05:55:26;;;;;;;;;3.00;2.00;;;;;7.37;63.38;99253.72;5034884;28;45040;-63
2021/12/08 05:57:52;;;;;;;;;8.00;0.00;;;;;7.35;63.35;99254.56;5034844;28;44974;-62
2021/12/08 06:00:27;;;;;;;;;1.00;1.00;;;;;7.34;63.33;99255.41;5034823;28;45055;-62
2021/12/08 06:02:53;;;;;;;;;0.00;0.00;;;;;7.16;63.47;99225.06;5022419;28;47269;-62
2021/12/08 06:05:20;;;;;;;;;0.00;0.00;;;;;7.21;63.22;99254.38;5022096;28;45428;-63
2021/12/08 06:07:46;;;;;;;;;0.50;0.00;;;;;7.15;63.77;99256.91;5019443;28;45501;-62
2021/12/08 06:10:21;;;;;;;;;4.00;2.50;;;;;7.08;64.59;99240.00;5023978;28;45429;-64
2021/12/08 06:12:47;;;;;;;;;2.00;2.00;;;;;7.05;64.88;99242.59;5027449;28;46134;-62
2021/12/08 06:15:13;;;;;;;;;2.75;1.75;;;;;7.05;64.03;99249.69;5028730;28;45575;-64
2021/12/08 06:17:39;;;;;;;;;1.75;1.75;;;;;7.06;64.22;99243.47;5034921;28;45125;-63
2021/12/08 06:20:08;;;;;;;;;1.00;1.00;;;;;7.03;64.15;99246.06;5034490;28;45269;-64
2021/12/08 06:22:34;;;;;;;;;4.75;3.00;;;;;6.98;64.55;99246.03;5034206;28;46325;-62
2021/12/08 06:24:59;;;;;;;;;0.00;0.00;;;;;6.92;64.56;99241.50;5034549;28;45094;-62
2021/12/08 06:27:25;;;;;;;;;2.00;2.00;;;;;6.90;64.74;99248.53;5033109;28;45001;-62
2021/12/08 06:29:51;;;;;;;;;2.00;0.00;;;;;6.88;64.97;99254.69;5049360;28;44891;-62
2021/12/08 06:32:17;;;;;;;;;1.75;0.75;;;;;6.86;64.19;99265.28;5034166;28;45652;-65
2021/12/08 06:34:48;;;;;;;;;1.00;1.00;;;;;6.75;64.36;99254.47;5034449;28;45100;-63
2021/12/08 06:37:19;;;;;;;;;2.50;1.25;;;;;6.77;64.64;99275.75;5032786;28;45077;-62
2021/12/08 06:40:26;;;;;;;;;2.75;1.00;;;;;6.73;64.57;99280.13;5034116;28;44958;-64
2021/12/08 06:42:59;;;;;;;;;3.00;0.00;;;;;6.72;64.54;99288.94;5012292;28;45846;-63
2021/12/08 06:45:29;;;;;;;;;0.00;0.00;;;;;6.25;64.54;99199.66;5031643;28;44927;-64
2021/12/08 06:47:56;;;;;;;;;1.50;1.00;;;;;6.75;65.02;99291.66;5028109;28;45249;-63
2021/12/08 06:50:38;;;;;;;;;0.50;0.50;;;;;6.76;64.91;99287.22;5033025;28;45428;-65
2021/12/08 06:53:05;;;;;;;;;7.25;1.00;;;;;6.76;64.92;99281.91;5032565;28;45262;-64
2021/12/08 06:55:37;;;;;;;;;1.25;0.75;;;;;6.74;64.96;99278.34;5030310;28;45431;-63
2021/12/08 06:58:23;;;;;;;;;3.00;1.00;;;;;6.74;65.02;99273.91;5022589;28;45475;-65
2021/12/08 07:06:59;;;;;;;;;4.00;2.50;;;;;6.53;65.12;99247.88;5005228;28;45425;-62
2021/12/08 07:09:39;;;;;;;;;5.25;2.00;;;;;6.70;65.34;99274.75;5028667;28;45153;-64
2021/12/08 07:12:09;;;;;;;;;7.25;2.00;;;;;6.70;65.25;99261.47;5013851;28;45096;-64
2021/12/08 07:14:35;;;;;;;;;1.00;1.00;;;;;6.40;65.32;99208.72;5031457;28;45288;-66
2021/12/08 07:17:05;;;;;;;;;1.50;1.00;;;;;6.73;65.39;99258.88;5032722;28;45047;-64
2021/12/08 07:19:43;;;;;;;;;3.50;1.75;;;;;6.64;65.17;99253.41;5032953;28;45339;-62
2021/12/08 07:22:13;;;;;;;;;1.00;1.00;;;;;6.69;64.98;99286.22;5033109;28;45211;-63
2021/12/08 07:24:42;;;;;;;;;2.25;2.00;;;;;6.63;65.56;99273.75;5032278;28;45770;-64
2021/12/08 07:27:12;;;;;;;;;6.50;2.75;;;;;6.56;65.78;99270.94;5026617;28;45203;-64
2021/12/08 07:29:40;;;;;;;;;3.00;3.00;;;;;6.16;65.97;99203.88;5022618;28;45450;-66
2021/12/08 07:32:11;;;;;;;;;1.50;1.00;;;;;6.21;65.35;99219.00;5015651;28;45488;-65
2021/12/08 07:34:37;;;;;;;;;3.25;2.00;;;;;6.60;65.92;99271.03;5015141;28;46693;-65
2021/12/08 07:37:13;;;;;;;;;3.00;3.00;;;;;6.57;65.62;99264.78;5007131;28;45520;-68
2021/12/08 07:39:44;;;;;;;;;2.00;0.25;;;;;6.64;65.86;99275.50;5024463;28;45275;-65
2021/12/08 07:42:34;;;;;;;;;2.00;2.00;;;;;6.60;65.75;99264.81;5020870;28;45319;-64
2021/12/08 07:45:06;;;;;;;;;8.25;2.00;;;;;5.54;65.63;99088.69;5018381;28;45585;-63
2021/12/08 07:47:32;;;;;;;;;4.75;2.00;;;;;6.61;66.24;99286.06;5019478;28;45367;-64
2021/12/08 07:50:09;;;;;;;;;5.00;5.00;;;;;6.64;65.75;99294.09;5014473;28;45574;-65
2021/12/08 07:52:40;;;;;;;;;0.75;0.75;;;;;6.66;65.74;99301.19;5024493;28;45284;-64
2021/12/08 07:55:15;;;;;;;;;3.50;2.00;;;;;6.71;65.69;99303.06;5016842;28;45363;-63
2021/12/08 07:57:42;;;;;;;;;4.00;3.25;;;;;6.73;65.51;99311.03;5014285;28;45416;-63
2021/12/08 08:00:22;;;;;;;;;2.50;2.00;;;;;6.60;65.16;99276.34;5023977;28;45305;-64
2021/12/08 08:02:50;;;;;;;;;3.50;2.00;;;;;6.81;65.82;99302.38;5030351;28;45301;-63
2021/12/08 08:05:16;;;;;;;;;3.00;1.25;;;;;6.89;65.99;99315.78;5024956;28;45571;-64
2021/12/08 08:07:43;;;;;;;;;1.25;0.00;;;;;6.90;64.99;99317.56;5008386;28;45438;-63
2021/12/08 08:10:14;;;;;;;;;4.00;2.00;;;;;6.96;65.27;99309.72;5014230;28;45611;-64
2021/12/08 08:12:43;;;;;;;;;2.50;1.00;;;;;6.86;64.46;99290.94;5008790;28;45737;-65
2021/12/08 08:15:15;;;;;;;;;2.50;2.00;;;;;6.93;64.51;99308.75;5016312;28;46120;-65
2021/12/08 08:17:44;;;;;;;;;5.50;3.25;;;;;7.04;64.49;99315.16;5026192;28;45399;-63
2021/12/08 08:20:16;;;;;;;;;9.50;4.50;;;;;6.86;64.24;99267.94;5012809;28;45391;-64
2021/12/08 08:22:42;;;;;;;;;16.75;14.75;;;;;7.09;64.43;99310.81;5013858;28;45504;-64
2021/12/08 08:25:11;;;;;;;;;2.50;2.50;;;;;7.10;64.40;99306.41;5013570;28;45429;-63
2021/12/08 08:27:37;;;;;;;;;2.25;2.25;;;;;6.98;64.02;99283.19;5011901;28;45577;-61
2021/12/08 08:30:08;;;;;;;;;6.25;1.25;;;;;7.08;64.19;99306.38;5013489;28;45473;-63
2021/12/08 08:32:36;;;;;;;;;4.25;3.25;;;;;7.02;63.86;99311.56;5009445;28;45490;-63
2021/12/08 08:35:15;;;;;;;;;17.00;6.00;;;;;7.13;63.78;99328.59;5011342;28;46931;-61
2021/12/08 08:37:42;;;;;;;;;5.25;2.00;;;;;6.95;63.85;99318.53;5011746;28;45302;-63
2021/12/08 08:40:18;;;;;;;;;3.00;1.00;;;;;7.10;64.13;99344.47;5013306;28;45422;-64
2021/12/08 08:42:46;;;;;;;;;2.00;1.00;;;;;7.11;64.33;99342.69;5013752;28;45658;-64
2021/12/08 08:45:21;;;;;;;;;3.00;2.00;;;;;7.12;64.60;99340.06;5007713;28;46247;-62
2021/12/08 08:48:10;;;;;;;;;3.75;2.50;;;;;7.17;64.67;99340.16;5005255;28;45454;-63
2021/12/08 08:50:42;;;;;;;;;2.75;1.50;;;;;7.25;63.47;99340.31;5012882;28;45458;-62
2021/12/08 08:53:09;;;;;;;;;2.00;2.00;;;;;7.15;64.09;99337.47;5012093;28;48318;-63
2021/12/08 08:55:45;;;;;;;;;5.25;2.50;;;;;7.16;63.48;99333.03;5012318;28;46093;-64
2021/12/08 08:58:13;;;;;;;;;1.00;1.00;;;;;7.01;63.77;99307.13;5002260;28;45397;-64
2021/12/08 09:00:43;;;;;;;;;2.75;2.75;;;;;6.79;63.69;99277.53;5014254;28;45518;-63
2021/12/08 09:03:13;;;;;;;;;3.00;2.00;;;;;7.22;63.60;99337.59;5010072;28;45633;-62
2021/12/08 09:05:51;;;;;;;;;8.50;7.25;;;;;7.23;63.48;99327.00;5029959;28;45714;-62
2021/12/08 09:08:16;;;;;;;;;3.75;1.00;;;;;7.31;64.05;99329.75;5044670;28;45084;-64
2021/12/08 09:10:50;;;;;;;;;4.75;2.75;;;;;7.34;63.74;99340.44;5021675;28;45106;-63
2021/12/08 09:13:30;;;;;;;;;6.50;6.25;;;;;7.37;63.00;99344.06;5022069;28;45094;-62
2021/12/08 09:16:01;;;;;;;;;1.75;1.25;;;;;7.39;63.02;99352.03;5012010;28;45749;-61
2021/12/08 09:18:38;;;;;;;;;3.25;2.00;;;;;7.45;63.14;99365.44;5015753;28;45375;-63
2021/12/08 09:21:17;;;;;;;;;1.00;1.00;;;;;7.39;62.88;99357.34;5018365;28;45083;-63
2021/12/08 09:23:42;;;;;;;;;1.00;1.00;;;;;7.54;62.59;99370.91;5020237;28;45091;-63
2021/12/08 09:26:11;;;;;;;;;2.25;0.25;;;;;7.37;62.59;99341.41;5025405;28;45742;-62
2021/12/08 09:28:48;;;;;;;;;1.00;1.00;;;;;7.53;62.30;99368.22;5017270;28;45092;-62
2021/12/08 09:31:26;;;;;;;;;7.00;2.50;;;;;7.57;61.97;99376.28;5007103;28;45350;-63
2021/12/08 09:34:10;;;;;;;;;1.00;1.00;;;;;7.18;61.98;99304.78;5022549;28;45374;-61
2021/12/08 09:36:42;;;;;;;;;2.00;0.75;;;;;7.64;61.79;99376.34;5013175;28;45825;-63
2021/12/08 09:39:24;;;;;;;;;0.50;0.25;;;;;7.63;61.45;99366.59;5006000;28;45463;-64
2021/12/08 09:42:08;;;;;;;;;3.00;3.00;;;;;7.72;62.18;99378.28;5036315;28;45346;-63
2021/12/08 09:44:46;;;;;;;;;2.25;1.50;;;;;7.71;61.15;99395.09;5011271;28;45403;-62
2021/12/08 09:47:12;;;;;;;;;2.00;2.00;;;;;7.32;61.26;99312.97;5009377;28;45956;-63
2021/12/08 09:49:39;;;;;;;;;5.25;4.75;;;;;7.68;61.55;99368.47;4998783;28;45283;-62
2021/12/08 09:52:07;;;;;;;;;3.50;3.50;;;;;7.76;61.30;99381.88;5021995;28;45277;-62
2021/12/08 09:54:33;;;;;;;;;33.25;29.25;;;;;7.94;61.20;99397.22;5011272;28;45418;-63
2021/12/08 09:57:00;;;;;;;;;5.75;5.00;;;;;8.02;61.17;99376.03;5007294;28;45381;-62
2021/12/08 09:59:26;;;;;;;;;7.25;1.00;;;;;7.99;59.92;99378.69;5014038;28;45516;-62
2021/12/08 10:01:52;;;;;;;;;4.75;2.00;;;;;8.00;60.70;99364.50;5014180;28;45352;-64
2021/12/08 10:04:19;;;;;;;;;0.50;0.50;;;;;8.08;59.97;99374.38;5025796;28;45468;-64
2021/12/08 10:06:49;;;;;;;;;6.00;4.50;;;;;7.91;60.11;99336.88;5016607;28;46202;-63
2021/12/08 10:09:18;;;;;;;;;6.50;4.00;;;;;8.11;60.26;99362.88;5008723;28;45723;-64
2021/12/08 10:11:44;;;;;;;;;9.00;6.50;;;;;8.16;60.33;99366.50;5022389;28;45480;-64
2021/12/08 10:14:10;;;;;;;;;5.25;5.25;;;;;8.19;59.67;99361.22;5019933;28;45378;-63
2021/12/08 10:16:36;;;;;;;;;5.00;3.00;;;;;8.09;60.51;99344.25;5012279;28;46193;-62
2021/12/08 10:19:05;;;;;;;;;1.75;1.00;;;;;8.03;59.10;99308.69;5012184;28;45452;-62
2021/12/08 10:21:36;;;;;;;;;2.00;2.00;;;;;8.31;59.63;99339.19;5005847;28;45473;-61
2021/12/08 10:24:15;;;;;;;;;8.25;4.50;;;;;8.32;59.19;99348.09;5012009;28;45507;-61
2021/12/08 10:26:41;;;;;;;;;7.50;2.00;;;;;8.24;58.18;99337.34;5006745;28;47240;-63
2021/12/08 10:29:07;;;;;;;;;7.25;5.00;;;;;8.30;59.56;99346.28;5015058;28;45500;-63
2021/12/08 10:31:40;;;;;;;;;3.25;2.00;;;;;8.33;58.41;99353.41;5015781;28;45509;-61
2021/12/08 10:34:21;;;;;;;;;3.75;2.00;;;;;8.38;59.64;99351.72;5015024;28;45390;-63
2021/12/08 10:37:06;;;;;;;;;3.50;3.00;;;;;8.39;58.23;99336.63;5013588;28;46481;-64
2021/12/08 10:39:35;;;;;;;;;1.25;1.25;;;;;8.46;58.62;99354.50;5012543;28;45402;-63
2021/12/08 10:42:04;;;;;;;;;3.25;3.00;;;;;8.46;58.67;99357.16;5014593;28;45347;-62
2021/12/08 10:44:52;;;;;;;;;1.75;1.75;;;;;8.50;58.25;99353.69;5014451;28;45342;-62
2021/12/08 10:47:24;;;;;;;;;1.75;1.75;;;;;8.52;58.66;99351.03;5009118;28;45690;-63
2021/12/08 10:55:53;;;;;;;;;4.75;4.00;;;;;8.67;57.29;99341.44;5015317;28;45346;-63
2021/12/08 10:58:21;;;;;;;;;2.25;2.00;;;;;8.23;57.59;99259.31;4998801;28;46424;-64
2021/12/08 11:00:48;;;;;;;;;4.00;3.00;;;;;8.74;56.83;99339.72;5012881;28;45547;-63
2021/12/08 11:03:14;;;;;;;;;4.50;3.25;;;;;8.82;56.95;99337.16;5023181;28;45626;-63
2021/12/08 11:05:58;;;;;;;;;2.75;1.00;;;;;8.85;56.91;99345.19;5011471;28;45342;-63
2021/12/08 11:08:35;;;;;;;;;9.00;6.00;;;;;8.87;56.66;99343.44;5011249;28;45443;-65
2021/12/08 11:11:09;;;;;;;;;3.00;2.00;;;;;8.65;56.66;99305.03;5000739;28;45458;-65
2021/12/08 11:13:40;;;;;;;;;4.25;4.25;;;;;8.99;55.67;99351.56;5012818;28;46309;-64
2021/12/08 11:16:05;;;;;;;;;8.75;7.50;;;;;9.06;56.41;99357.84;5012281;28;45565;-63
2021/12/08 11:18:32;;;;;;;;;3.00;2.00;;;;;9.09;55.44;99352.53;5013472;28;45517;-64
2021/12/08 11:21:02;;;;;;;;;2.00;2.00;;;;;9.13;54.61;99351.69;5014098;28;45528;-64
2021/12/08 11:23:46;;;;;;;;;6.25;4.50;;;;;9.10;54.81;99342.78;5015887;28;45441;-65
2021/12/08 11:26:16;;;;;;;;;9.00;6.25;;;;;9.00;54.84;99324.03;5011158;28;45514;-65
2021/12/08 11:28:44;;;;;;;;;3.25;3.00;;;;;9.22;55.28;99348.19;5008122;28;45404;-64
2021/12/08 11:31:14;;;;;;;;;3.00;2.00;;;;;9.18;54.82;99330.41;5015017;28;45587;-63
2021/12/08 11:33:43;;;;;;;;;2.00;2.00;;;;;9.24;54.12;99338.47;5006939;28;45789;-63
2021/12/08 11:36:16;;;;;;;;;3.25;3.00;;;;;9.29;54.93;99344.72;5018464;28;45387;-64
2021/12/08 11:38:44;;;;;;;;;5.75;5.75;;;;;9.22;54.14;99317.13;4999345;28;46205;-66
2021/12/08 11:41:23;;;;;;;;;11.50;6.25;;;;;9.44;54.37;99349.31;5032331;28;45376;-64
2021/12/08 11:43:56;;;;;;;;;11.75;11.00;;;;;9.41;54.31;99327.94;5012371;28;44985;-66
2021/12/08 11:46:22;;;;;;;;;16.50;13.50;;;;;9.57;53.91;99348.53;5014195;28;45308;-65
2021/12/08 11:48:54;;;;;;;;;13.50;7.75;;;;;9.59;53.24;99341.41;5009933;28;45345;-64
2021/12/08 11:51:19;;;;;;;;;7.75;3.75;;;;;9.53;53.01;99335.13;5005592;28;45379;-66
2021/12/08 11:53:45;;;;;;;;;6.75;2.00;;;;;9.55;52.99;99333.38;5010757;28;45325;-64
2021/12/08 11:56:40;;;;;;;;;2.25;1.00;;;;;9.65;52.96;99347.66;5021161;28;45267;-65
2021/12/08 11:59:09;;;;;;;;;4.00;3.00;;;;;9.67;53.25;99352.16;5009073;28;46286;-66
2021/12/08 12:01:36;;;;;;;;;2.75;2.75;;;;;9.66;53.01;99358.34;5007377;28;46049;-66
2021/12/08 12:04:04;;;;;;;;;3.25;3.25;;;;;9.61;53.04;99354.75;5010919;28;45682;-66
2021/12/08 12:06:30;;;;;;;;;3.50;1.00;;;;;9.17;53.08;99286.91;5013662;28;45437;-66
2021/12/08 12:08:57;;;;;;;;;4.00;2.00;;;;;9.48;53.35;99327.09;5012667;28;46207;-67
2021/12/08 12:11:25;;;;;;;;;9.00;4.00;;;;;9.73;53.57;99365.53;5022033;28;45483;-67
2021/12/08 12:13:53;;;;;;;;;3.50;2.25;;;;;9.60;53.41;99326.28;5022189;28;45477;-67
2021/12/08 12:16:19;;;;;;;;;4.25;2.00;;;;;9.80;52.95;99370.88;5009722;28;45540;-67
2021/12/08 12:18:46;;;;;;;;;3.50;1.75;;;;;9.75;52.48;99370.84;5015908;28;45424;-65
2021/12/08 12:21:30;;;;;;;;;2.25;2.00;;;;;9.69;53.06;99371.72;5015202;28;45541;-65
2021/12/08 12:24:02;;;;;;;;;2.00;2.00;;;;;9.66;52.72;99363.69;5021538;28;45412;-64
2021/12/08 12:26:46;;;;;;;;;3.50;2.00;;;;;9.62;53.11;99364.56;5010359;28;45581;-65
2021/12/08 12:29:31;;;;;;;;;7.00;3.75;;;;;9.63;53.57;99358.31;5005196;28;45533;-65
2021/12/08 12:32:03;;;;;;;;;3.50;2.50;;;;;9.62;54.11;99359.22;5013056;28;45574;-66
2021/12/08 12:34:34;;;;;;;;;2.50;2.00;;;;;9.71;53.22;99371.72;5011478;28;45444;-63
2021/12/08 12:37:05;;;;;;;;;1.25;1.25;;;;;9.77;53.86;99385.13;5012258;28;45394;-64
2021/12/08 12:39:31;;;;;;;;;5.25;3.00;;;;;9.74;52.88;99372.63;4999892;28;46346;-65
2021/12/08 12:42:14;;;;;;;;;3.25;2.00;;;;;9.90;53.44;99396.75;5009729;28;45928;-63
2021/12/08 12:45:07;;;;;;;;;3.00;2.00;;;;;9.94;53.38;99403.91;5000371;28;45322;-64
2021/12/08 12:47:33;;;;;;;;;2.00;2.00;;;;;9.99;53.21;99395.94;5002817;28;45581;-64
2021/12/08 12:50:10;;;;;;;;;4.00;1.00;;;;;10.02;52.86;99412.84;4996267;28;46395;-66
2021/12/08 12:52:49;;;;;;;;;3.50;3.00;;;;;10.03;52.61;99403.97;5006565;28;45720;-64